createdAt,value
2018-12-24T00:01:44.401Z,0.40
2018-12-24T00:04:15.228Z,0.50
2018-12-24T00:06:46.214Z,0.40
2018-12-24T00:09:16.890Z,0.40
2018-12-24T00:11:47.583Z,0.40
2018-12-24T00:14:18.202Z,0.30
2018-12-24T00:16:48.926Z,0.40
2018-12-24T00:19:19.602Z,0.40
2018-12-24T00:21:50.249Z,0.30
2018-12-24T00:24:21.103Z,0.40
2018-12-24T00:26:51.958Z,0.37
2018-12-24T00:29:22.564Z,0.30
2018-12-24T00:31:53.272Z,0.40
2018-12-24T00:34:23.915Z,0.30
2018-12-24T00:36:54.627Z,0.30
2018-12-24T00:39:25.239Z,0.40
2018-12-24T00:41:57.020Z,0.30
2018-12-24T00:44:27.667Z,0.30
2018-12-24T00:46:58.377Z,0.40
2018-12-24T00:49:29.108Z,0.40
2018-12-24T00:51:59.827Z,0.40
2018-12-24T00:54:30.403Z,0.40
2018-12-24T00:57:01.303Z,0.40
2018-12-24T00:59:31.945Z,0.40
2018-12-24T01:02:02.683Z,0.40
2018-12-24T01:04:33.359Z,0.40
2018-12-24T01:07:04.195Z,0.40
2018-12-24T01:09:34.819Z,0.40
2018-12-24T01:12:05.395Z,0.30
2018-12-24T01:14:36.280Z,0.50
2018-12-24T01:17:06.931Z,0.33
2018-12-24T01:19:37.803Z,0.30
2018-12-24T01:22:08.385Z,0.30
2018-12-24T01:24:39.275Z,0.43
2018-12-24T01:27:10.033Z,0.40
2018-12-24T01:29:40.663Z,0.30
2018-12-24T01:32:11.565Z,0.30
2018-12-24T01:34:42.243Z,0.30
2018-12-24T01:37:13.087Z,0.30
2018-12-24T01:39:43.690Z,0.30
2018-12-24T01:42:14.368Z,0.30
2018-12-24T01:44:45.028Z,0.30
2018-12-24T01:47:15.853Z,0.40
2018-12-24T01:49:46.473Z,0.40
2018-12-24T01:52:17.118Z,0.30
2018-12-24T01:54:47.783Z,0.40
2018-12-24T01:57:18.749Z,0.30
2018-12-24T01:59:49.409Z,0.40
2018-12-24T02:02:20.195Z,0.30
2018-12-24T02:04:50.838Z,0.40
2018-12-24T02:07:21.489Z,0.43
2018-12-24T02:09:52.255Z,0.30
2018-12-24T02:12:22.929Z,0.30
2018-12-24T02:14:53.595Z,0.30
2018-12-24T02:17:24.203Z,0.40
2018-12-24T02:19:54.944Z,0.30
2018-12-24T02:22:25.619Z,0.30
2018-12-24T02:24:56.285Z,0.30
2018-12-24T02:27:27.030Z,0.30
2018-12-24T02:29:57.729Z,0.40
2018-12-24T02:32:28.340Z,0.40
2018-12-24T02:34:59.134Z,0.30
2018-12-24T02:37:29.709Z,0.30
2018-12-24T02:40:00.344Z,0.40
2018-12-24T02:42:30.974Z,0.37
2018-12-24T02:45:01.528Z,0.70
2018-12-24T02:47:32.299Z,0.83
2018-12-24T02:50:03.047Z,0.73
2018-12-24T02:52:33.720Z,0.63
2018-12-24T02:55:04.289Z,0.80
2018-12-24T02:57:35.037Z,0.50
2018-12-24T03:00:05.962Z,0.50
2018-12-24T03:02:36.704Z,0.80
2018-12-24T03:05:07.629Z,0.40
2018-12-24T03:07:38.304Z,0.40
2018-12-24T03:10:09.013Z,0.40
2018-12-24T03:12:39.829Z,0.40
2018-12-24T03:15:10.414Z,0.37
2018-12-24T03:17:41.148Z,0.40
2018-12-24T03:20:11.739Z,0.40
2018-12-24T03:22:42.522Z,0.47
2018-12-24T03:25:13.203Z,1.80
2018-12-24T03:27:43.945Z,0.40
2018-12-24T03:30:14.631Z,0.30
2018-12-24T03:32:46.177Z,0.30
2018-12-24T03:35:16.883Z,0.50
2018-12-24T03:37:47.619Z,0.50
2018-12-24T03:40:18.263Z,0.40
2018-12-24T03:42:49.058Z,0.40
2018-12-24T03:45:21.040Z,0.30
2018-12-24T03:47:52.674Z,0.40
2018-12-24T03:50:23.333Z,0.30
2018-12-24T03:52:54.009Z,0.40
2018-12-24T03:55:24.575Z,0.30
2018-12-24T03:57:57.575Z,0.77
2018-12-24T04:00:28.257Z,0.40
2018-12-24T04:02:58.853Z,0.40
2018-12-24T04:05:29.552Z,0.30
2018-12-24T04:08:00.280Z,0.40
2018-12-24T04:10:30.920Z,0.40
2018-12-24T04:13:01.536Z,0.30
2018-12-24T04:15:32.165Z,0.40
2018-12-24T04:18:02.830Z,0.40
2018-12-24T04:20:33.392Z,0.50
2018-12-24T04:23:04.149Z,0.30
2018-12-24T04:25:39.840Z,0.30
2018-12-24T04:28:10.522Z,0.30
2018-12-24T04:30:41.125Z,0.30
2018-12-24T04:33:11.880Z,0.40
2018-12-24T04:35:42.717Z,0.60
2018-12-24T04:38:13.306Z,0.30
2018-12-24T04:40:44.081Z,0.30
2018-12-24T04:43:14.666Z,0.40
2018-12-24T04:45:45.417Z,0.30
2018-12-24T04:48:16.084Z,0.40
2018-12-24T04:50:46.814Z,0.30
2018-12-24T04:53:17.365Z,0.30
2018-12-24T04:55:48.148Z,0.30
2018-12-24T04:58:18.720Z,0.40
2018-12-24T05:00:49.560Z,0.60
2018-12-24T05:03:20.133Z,0.40
2018-12-24T05:05:50.792Z,0.40
2018-12-24T05:08:21.419Z,0.37
2018-12-24T05:10:52.093Z,0.30
2018-12-24T05:13:22.925Z,8.93
2018-12-24T05:15:53.497Z,0.50
2018-12-24T05:18:24.128Z,0.40
2018-12-24T05:20:54.984Z,0.30
2018-12-24T05:24:27.035Z,0.30
2018-12-24T05:30:02.679Z,0.33
2018-12-24T05:35:37.835Z,0.40
2018-12-24T05:52:55.944Z,0.37
2018-12-24T05:55:26.120Z,0.60
2018-12-24T06:01:02.362Z,0.40
2018-12-24T06:16:23.366Z,1.57
2018-12-24T06:25:05.814Z,0.40
2018-12-24T06:27:36.007Z,0.70
2018-12-24T06:41:49.302Z,0.90
2018-12-24T06:44:59.225Z,2.30
2018-12-24T06:47:48.469Z,1.20
2018-12-24T06:56:10.415Z,1.50
2018-12-24T07:08:07.009Z,0.97
2018-12-24T07:26:03.193Z,1.00
2018-12-24T07:28:33.447Z,0.50
2018-12-24T07:31:03.777Z,3.47
2018-12-24T07:45:57.156Z,0.60
2018-12-24T07:51:52.110Z,0.90
2018-12-24T08:00:33.081Z,1.00
2018-12-24T08:03:03.442Z,0.80
2018-12-24T08:05:33.956Z,1.30
2018-12-24T08:08:07.508Z,1.80
2018-12-24T08:10:37.843Z,2.27
2018-12-24T08:13:08.492Z,1.20
2018-12-24T08:15:38.911Z,0.90
2018-12-24T08:18:09.266Z,0.70
2018-12-24T08:20:39.542Z,0.80
2018-12-24T08:23:10.112Z,0.60
2018-12-24T08:25:40.750Z,1.00
2018-12-24T08:28:11.043Z,0.70
2018-12-24T08:30:41.373Z,0.73
2018-12-24T08:33:11.898Z,0.80
2018-12-24T08:35:42.387Z,0.60
2018-12-24T08:38:12.776Z,0.60
2018-12-24T08:40:43.605Z,0.80
2018-12-24T08:43:13.987Z,0.83
2018-12-24T08:45:44.373Z,0.73
2018-12-24T08:48:15.075Z,0.70
2018-12-24T08:50:45.337Z,0.70
2018-12-24T08:53:15.587Z,0.90
2018-12-24T08:55:45.866Z,0.60
2018-12-24T08:58:16.114Z,0.70
2018-12-24T09:00:46.386Z,0.60
2018-12-24T09:03:16.580Z,1.20
2018-12-24T09:05:46.722Z,1.00
2018-12-24T09:08:16.872Z,1.20
2018-12-24T09:10:47.011Z,1.10
2018-12-24T09:13:17.318Z,0.83
2018-12-24T09:15:50.445Z,0.87
2018-12-24T09:18:20.708Z,0.87
2018-12-24T09:20:52.837Z,3.73
2018-12-24T09:23:24.371Z,0.50
2018-12-24T09:25:54.982Z,0.70
2018-12-24T09:28:25.224Z,0.70
2018-12-24T09:30:55.429Z,0.90
2018-12-24T09:33:25.606Z,0.80
2018-12-24T09:35:55.802Z,1.13
2018-12-24T09:38:26.126Z,1.20
2018-12-24T09:40:56.320Z,1.10
2018-12-24T09:43:26.463Z,1.13
2018-12-24T09:45:56.734Z,1.40
2018-12-24T09:48:26.941Z,1.57
2018-12-24T09:50:57.195Z,3.10
2018-12-24T09:53:27.392Z,2.07
2018-12-24T09:55:57.663Z,1.47
2018-12-24T09:58:27.918Z,1.77
2018-12-24T10:00:58.084Z,1.20
2018-12-24T10:03:42.187Z,0.60
2018-12-24T10:06:15.610Z,1.00
2018-12-24T10:08:46.030Z,1.13
2018-12-24T10:11:16.148Z,0.77
2018-12-24T10:13:47.431Z,0.70
2018-12-24T10:16:17.722Z,0.90
2018-12-24T10:18:47.875Z,0.80
2018-12-24T10:21:18.119Z,0.77
2018-12-24T10:23:48.268Z,1.10
2018-12-24T10:26:18.517Z,1.27
2018-12-24T10:28:48.693Z,0.80
2018-12-24T10:31:18.838Z,1.20
2018-12-24T10:33:49.178Z,0.60
2018-12-24T10:36:19.334Z,0.60
2018-12-24T10:38:51.624Z,0.60
2018-12-24T10:41:24.466Z,0.90
2018-12-24T10:43:55.184Z,0.60
2018-12-24T10:46:25.672Z,4.50
2018-12-24T10:48:55.988Z,1.30
2018-12-24T10:51:26.273Z,1.10
2018-12-24T10:53:56.418Z,0.80
2018-12-24T10:56:26.774Z,0.70
2018-12-24T10:58:56.902Z,0.70
2018-12-24T11:01:27.049Z,0.60
2018-12-24T11:03:57.190Z,0.87
2018-12-24T11:06:27.519Z,0.70
2018-12-24T11:08:57.797Z,0.50
2018-12-24T11:11:29.963Z,0.50
2018-12-24T11:14:00.138Z,0.90
2018-12-24T11:16:30.358Z,0.50
2018-12-24T11:19:00.513Z,0.57
2018-12-24T11:21:30.655Z,2.50
2018-12-24T11:24:00.818Z,6.77
2018-12-24T11:26:31.049Z,38.30
2018-12-24T11:29:01.363Z,4.93
2018-12-24T11:31:31.543Z,2.67
2018-12-24T11:34:01.737Z,3.80
2018-12-24T11:36:31.963Z,1.85
2018-12-24T11:39:02.211Z,0.72
2018-12-24T11:41:33.344Z,1.80
2018-12-24T11:44:03.565Z,0.90
2018-12-24T11:46:34.727Z,0.97
2018-12-24T11:49:04.897Z,1.10
2018-12-24T11:51:35.141Z,9.97
2018-12-24T11:54:05.338Z,24.47
2018-12-24T11:56:38.905Z,7.50
2018-12-24T11:59:09.321Z,4.50
2018-12-24T12:01:39.584Z,3.97
2018-12-24T12:04:09.888Z,7.10
2018-12-24T12:06:40.125Z,6.93
2018-12-24T12:09:10.366Z,6.47
2018-12-24T12:11:40.510Z,8.57
2018-12-24T12:14:10.706Z,8.93
2018-12-24T12:16:40.915Z,6.63
2018-12-24T12:19:11.105Z,6.03
2018-12-24T12:21:44.628Z,4.50
2018-12-24T12:24:15.153Z,2.80
2018-12-24T12:26:45.445Z,3.77
2018-12-24T12:29:15.764Z,1.40
2018-12-24T12:31:45.949Z,2.20
2018-12-24T12:34:16.104Z,1.53
2018-12-24T12:36:46.504Z,1.55
2018-12-24T12:39:16.712Z,1.13
2018-12-24T12:41:46.948Z,1.50
2018-12-24T12:44:17.134Z,1.47
2018-12-24T12:46:47.831Z,1.27
2018-12-24T12:49:18.060Z,3.00
2018-12-24T12:51:48.317Z,4.53
2018-12-24T12:54:18.554Z,6.80
2018-12-24T12:56:48.841Z,8.20
2018-12-24T12:59:19.165Z,10.40
2018-12-24T13:01:49.462Z,5.40
2018-12-24T13:04:19.657Z,2.93
2018-12-24T13:06:50.203Z,2.47
2018-12-24T13:09:20.631Z,2.10
2018-12-24T13:11:50.864Z,2.00
2018-12-24T13:14:21.153Z,4.67
2018-12-24T13:16:51.290Z,3.47
2018-12-24T13:19:21.469Z,2.00
2018-12-24T13:21:51.725Z,1.30
2018-12-24T13:24:21.894Z,1.30
2018-12-24T13:26:54.258Z,1.50
2018-12-24T13:29:24.533Z,1.40
2018-12-24T13:31:54.739Z,1.60
2018-12-24T13:34:24.968Z,1.57
2018-12-24T13:36:55.179Z,1.85
2018-12-24T13:39:25.395Z,3.20
2018-12-24T13:41:55.649Z,1.00
2018-12-24T13:44:25.943Z,0.83
2018-12-24T13:46:56.377Z,0.80
2018-12-24T13:49:26.633Z,0.73
2018-12-24T13:51:56.878Z,0.93
2018-12-24T13:54:27.080Z,3.73
2018-12-24T13:56:57.542Z,1.10
2018-12-24T13:59:27.794Z,1.00
2018-12-24T14:01:58.020Z,1.27
2018-12-24T14:04:28.229Z,1.20
2018-12-24T14:06:58.406Z,0.77
2018-12-24T14:09:28.627Z,1.03
2018-12-24T14:11:58.853Z,0.73
2018-12-24T14:14:29.076Z,1.23
2018-12-24T14:16:59.320Z,1.50
2018-12-24T14:19:29.574Z,4.23
2018-12-24T14:21:59.830Z,1.63
2018-12-24T14:24:30.168Z,1.62
2018-12-24T14:27:00.569Z,2.20
2018-12-24T14:29:30.773Z,5.90
2018-12-24T14:32:01.107Z,2.17
2018-12-24T14:34:31.404Z,1.40
2018-12-24T14:37:01.625Z,1.77
2018-12-24T14:39:31.835Z,1.83
2018-12-24T14:42:02.026Z,2.13
2018-12-24T14:44:32.231Z,14.80
2018-12-24T14:47:02.441Z,2.87
2018-12-24T14:49:32.627Z,2.20
2018-12-24T14:52:02.841Z,4.00
2018-12-24T14:54:33.044Z,11.90
2018-12-24T14:57:04.004Z,11.85
2018-12-24T14:59:34.599Z,4.17
2018-12-24T15:02:05.767Z,1.90
2018-12-24T15:04:37.459Z,2.10
2018-12-24T15:07:09.315Z,1.80
2018-12-24T15:09:46.174Z,2.10
2018-12-24T15:12:16.640Z,1.77
2018-12-24T15:14:46.915Z,2.60
2018-12-24T15:17:17.254Z,2.60
2018-12-24T15:19:47.518Z,1.97
2018-12-24T15:22:17.679Z,4.57
2018-12-24T15:24:47.944Z,2.12
2018-12-24T15:27:18.069Z,2.33
2018-12-24T15:29:48.325Z,1.50
2018-12-24T15:32:18.573Z,1.80
2018-12-24T15:34:48.729Z,1.90
2018-12-24T15:37:18.901Z,2.13
2018-12-24T15:39:49.165Z,1.90
2018-12-24T15:42:19.285Z,2.23
2018-12-24T15:44:52.489Z,2.00
2018-12-24T15:47:22.915Z,1.57
2018-12-24T15:49:53.170Z,2.20
2018-12-24T15:52:23.314Z,4.00
2018-12-24T15:54:53.494Z,3.07
2018-12-24T15:57:23.635Z,2.40
2018-12-24T15:59:53.777Z,2.00
2018-12-24T16:02:23.927Z,2.00
2018-12-24T16:04:54.104Z,1.90
2018-12-24T16:07:24.310Z,2.50
2018-12-24T16:09:54.538Z,2.97
2018-12-24T16:12:24.844Z,3.50
2018-12-24T16:14:55.024Z,3.10
2018-12-24T16:17:26.109Z,3.13
2018-12-24T16:19:56.336Z,20.60
2018-12-24T16:22:26.478Z,7.27
2018-12-24T16:24:56.690Z,3.87
2018-12-24T16:27:26.850Z,4.10
2018-12-24T16:29:57.129Z,3.50
2018-12-24T16:32:27.297Z,2.70
2018-12-24T16:34:57.510Z,2.80
2018-12-24T16:37:27.677Z,2.40
2018-12-24T16:39:57.882Z,3.13
2018-12-24T16:42:28.049Z,2.80
2018-12-24T16:44:58.255Z,3.03
2018-12-24T16:47:28.429Z,3.07
2018-12-24T16:49:58.593Z,2.97
2018-12-24T16:52:28.738Z,2.30
2018-12-24T16:54:58.998Z,2.40
2018-12-24T16:57:29.266Z,4.60
2018-12-24T16:59:59.568Z,8.27
2018-12-24T17:02:29.695Z,6.40
2018-12-24T17:04:59.878Z,3.30
2018-12-24T17:07:30.004Z,3.00
2018-12-24T17:10:00.288Z,3.30
2018-12-24T17:12:30.500Z,3.90
2018-12-24T17:15:00.722Z,3.60
2018-12-24T17:17:30.914Z,3.60
2018-12-24T17:20:01.249Z,6.73
2018-12-24T17:22:31.424Z,7.37
2018-12-24T17:25:01.614Z,5.07
2018-12-24T17:27:31.876Z,4.30
2018-12-24T17:30:02.091Z,4.70
2018-12-24T17:32:32.309Z,5.20
2018-12-24T17:35:02.950Z,3.72
2018-12-24T17:37:33.229Z,25.03
2018-12-24T17:40:03.521Z,15.50
2018-12-24T17:42:33.712Z,6.90
2018-12-24T17:45:04.230Z,5.27
2018-12-24T17:47:34.363Z,4.67
2018-12-24T17:50:05.965Z,3.67
2018-12-24T17:52:36.415Z,4.03
2018-12-24T17:55:06.664Z,4.20
2018-12-24T17:57:36.895Z,4.33
2018-12-24T18:00:07.155Z,4.37
2018-12-24T18:02:37.343Z,4.60
2018-12-24T18:05:07.558Z,4.42
2018-12-24T18:07:37.717Z,4.03
2018-12-24T18:10:08.046Z,3.70
2018-12-24T18:12:38.201Z,4.00
2018-12-24T18:15:08.533Z,3.47
2018-12-24T18:17:39.030Z,4.60
2018-12-24T18:20:09.395Z,4.60
2018-12-24T18:22:39.757Z,5.10
2018-12-24T18:25:10.000Z,4.73
2018-12-24T18:27:40.201Z,5.37
2018-12-24T18:30:10.460Z,5.57
2018-12-24T18:32:40.582Z,7.00
2018-12-24T18:35:10.825Z,5.57
2018-12-24T18:37:41.114Z,6.70
2018-12-24T18:40:11.274Z,6.00
2018-12-24T18:42:41.474Z,5.55
2018-12-24T18:45:11.635Z,5.57
2018-12-24T18:47:41.843Z,5.27
2018-12-24T18:50:12.000Z,5.70
2018-12-24T18:52:42.240Z,5.47
2018-12-24T18:55:12.351Z,5.60
2018-12-24T18:57:42.630Z,5.70
2018-12-24T19:00:12.902Z,5.73
2018-12-24T19:02:43.103Z,5.43
2018-12-24T19:05:13.280Z,6.67
2018-12-24T19:07:43.480Z,6.90
2018-12-24T19:10:13.784Z,6.10
2018-12-24T19:12:45.004Z,6.57
2018-12-24T19:15:17.236Z,5.70
2018-12-24T19:17:47.590Z,5.67
2018-12-24T19:20:18.100Z,5.03
2018-12-24T19:22:48.510Z,4.90
2018-12-24T19:25:18.894Z,10.90
2018-12-24T19:27:50.164Z,4.40
2018-12-24T19:30:20.621Z,4.85
2018-12-24T19:32:50.882Z,5.97
2018-12-24T19:35:23.034Z,5.10
2018-12-24T19:37:53.346Z,4.97
2018-12-24T19:40:23.600Z,5.20
2018-12-24T19:42:53.879Z,6.00
2018-12-24T19:45:24.194Z,4.87
2018-12-24T19:47:54.422Z,5.53
2018-12-24T19:50:24.655Z,5.27
2018-12-24T19:52:54.876Z,5.00
2018-12-24T19:55:25.125Z,6.30
2018-12-24T19:57:55.381Z,6.10
2018-12-24T20:00:25.692Z,5.60
2018-12-24T20:02:55.913Z,6.07
2018-12-24T20:05:26.291Z,5.70
2018-12-24T20:07:56.799Z,5.83
2018-12-24T20:10:27.035Z,5.63
2018-12-24T20:12:57.393Z,4.60
2018-12-24T20:15:27.672Z,5.53
2018-12-24T20:17:58.325Z,6.20
2018-12-24T20:20:28.754Z,6.03
2018-12-24T20:22:58.987Z,6.10
2018-12-24T20:25:29.294Z,5.63
2018-12-24T20:27:59.649Z,6.80
2018-12-24T20:30:31.486Z,6.90
2018-12-24T20:33:01.890Z,7.00
2018-12-24T20:35:32.141Z,6.17
2018-12-24T20:38:02.411Z,6.30
2018-12-24T20:40:32.685Z,5.93
2018-12-24T20:43:02.935Z,7.20
2018-12-24T20:45:33.367Z,7.53
2018-12-24T20:48:06.836Z,6.53
2018-12-24T20:50:35.990Z,6.70
2018-12-24T20:53:06.400Z,6.10
2018-12-24T20:55:36.649Z,6.60
2018-12-24T20:58:06.935Z,6.67
2018-12-24T21:00:37.194Z,6.97
2018-12-24T21:03:07.408Z,6.50
2018-12-24T21:05:37.645Z,7.22
2018-12-24T21:08:08.064Z,7.30
2018-12-24T21:10:38.496Z,7.87
2018-12-24T21:13:08.830Z,7.23
2018-12-24T21:15:39.091Z,8.03
2018-12-24T21:18:14.995Z,7.85
2018-12-24T21:20:41.491Z,8.25
2018-12-24T21:23:21.441Z,7.67
2018-12-24T21:25:51.632Z,7.43
2018-12-24T21:28:21.901Z,20.70
2018-12-24T21:30:52.092Z,8.83
2018-12-24T21:33:22.296Z,8.27
2018-12-24T21:35:52.556Z,7.40
2018-12-24T21:38:22.876Z,9.30
2018-12-24T21:40:53.110Z,7.57
2018-12-24T21:43:23.589Z,9.87
2018-12-24T21:45:53.961Z,10.87
2018-12-24T21:48:24.376Z,10.73
2018-12-24T21:50:54.711Z,8.07
2018-12-24T21:53:25.036Z,8.53
2018-12-24T21:55:55.302Z,9.07
2018-12-24T21:58:25.581Z,8.17
2018-12-24T22:00:56.190Z,8.20
2018-12-24T22:03:26.549Z,7.50
2018-12-24T22:05:56.770Z,7.40
2018-12-24T22:08:27.040Z,8.63
2018-12-24T22:10:57.199Z,8.43
2018-12-24T22:13:27.478Z,7.97
2018-12-24T22:15:57.635Z,8.70
2018-12-24T22:18:32.220Z,9.33
2018-12-24T22:20:59.762Z,9.30
2018-12-24T22:23:29.995Z,8.73
2018-12-24T22:26:00.190Z,8.70
2018-12-24T22:28:30.507Z,8.60
2018-12-24T22:31:00.695Z,8.47
2018-12-24T22:33:30.906Z,7.90
2018-12-24T22:36:01.145Z,7.87
2018-12-24T22:38:32.724Z,8.83
2018-12-24T22:41:03.236Z,7.80
2018-12-24T22:43:33.416Z,8.70
2018-12-24T22:46:03.698Z,8.97
2018-12-24T22:48:40.653Z,9.40
2018-12-24T22:51:05.872Z,9.10
2018-12-24T22:53:36.124Z,8.40
2018-12-24T22:56:06.376Z,9.03
2018-12-24T22:58:36.571Z,11.00
2018-12-24T23:01:06.949Z,9.00
2018-12-24T23:03:37.172Z,7.70
2018-12-24T23:06:07.396Z,7.22
2018-12-24T23:08:37.630Z,7.20
2018-12-24T23:11:07.861Z,8.13
2018-12-24T23:13:38.051Z,9.13
2018-12-24T23:16:08.392Z,8.20
2018-12-24T23:18:38.762Z,8.33
2018-12-24T23:21:09.376Z,8.90
2018-12-24T23:23:39.726Z,8.10
2018-12-24T23:26:11.053Z,8.50
2018-12-24T23:28:41.950Z,7.37
2018-12-24T23:31:12.264Z,7.93
2018-12-24T23:33:42.496Z,8.10
2018-12-24T23:36:12.670Z,9.30
2018-12-24T23:38:42.838Z,9.37
2018-12-24T23:41:12.995Z,8.47
2018-12-24T23:43:43.252Z,9.23
2018-12-24T23:46:13.427Z,8.60
2018-12-24T23:48:43.656Z,7.90
2018-12-24T23:51:13.771Z,9.07
2018-12-24T23:53:43.926Z,8.73
2018-12-24T23:56:14.147Z,8.90
2018-12-24T23:58:44.376Z,9.37
